Terminal Aerodrome Forecast
Issued by NWS

Home | Current Version | Previous Version | Text Only | Print | Product List | Glossary On
Versions: 1 2 3 4 5 6 7 8 9 10 11 12 13 14 15 16 17 18
000
FTUS46 KSGX 181736
TAFSNA
TAF
KSNA 181736Z 1818/1918 VRB05KT P6SM BKN020
      TEMPO 1820/1824 SCT025
     FM190400 18007KT P6SM VCSH BKN025 OVC035
     FM190900 14013G20KT 4SM RA BR BKN015 OVC025=

USA.gov is the U.S. government's official web portal to all federal, state and local government web resources and services.